Weather at Niagara Health System Heliport

Public forecast

Using degrees Celsius for public forecast. Weather courtesy of forecast.io.

Closest aviation weather report (METAR) to Niagara Health System Heliport

Closest report is Niagara District Airport, 5.3 nm (9.9 km) ENE.

2024/05/28 17:00 (retrieved 31 minutes ago)

CYSN 281700Z 30012G19KT 15SM FEW030 BKN100 19/14 A2979 RMK SC1AC7 SC TR SLP088 DENSITY ALT 1100FT

Closest aviation forecast (TAF) to Niagara Health System Heliport

Closest forecast is Niagara District Airport, 5.3 nm (9.9 km) ENE.

2024/05/28 13:42 (retrieved 4 hours ago)

TAF CYSN 281241Z 2813/2901 25010KT P6SM SCT015 BKN080 TEMPO 2813/2816 BKN015 OVC080 FM281600 30012G22KT P6SM -SHRA SCT012 OVC060 TEMPO 2816/2901 5SM -SHRA BR BKN012 OVC040 PROB30 2818/2822 4SM TSRA BR BKN020CB RMK NXT FCST BY 282000Z